<?xml version="1.0" encoding="UTF-8" standalone="no" ?>
<gpx xmlns="http://www.topografix.com/GPX/1/1" xmlns:xsi="http://www.w3.org/2001/XMLSchema-instance" xsi:schemaLocation="http://www.topografix.com/GPX/1/1 http://www.topografix.com/GPX/1/1/gpx.xsd" version="1.1" creator="VisuGPX - https://www.visugpx.com">
  <metadata>
    <name>Sur les traces du Roc Noir 2019 (hors organisation) - 23391 - UtagawaVTT.com</name>
  </metadata>
  <trk>
    <name><![CDATA[Sur les traces du Roc Noir 2019 (hors organisation) - 23391 - UtagawaVTT.com]]></name>
    <trkseg>
      <trkpt lat="43.4245" lon="6.7358">
        <ele>7.199325</ele>
        <time>2019-10-03T06:50:05Z</time>
      </trkpt>
      <trkpt lat="43.4241" lon="6.73486">
        <ele>7</ele>
        <time>2019-10-03T06:50:16Z</time>
      </trkpt>
      <trkpt lat="43.42113" lon="6.73054">
        <ele>6</ele>
        <time>2019-10-03T06:50:29Z</time>
      </trkpt>
      <trkpt lat="43.41539" lon="6.72662">
        <ele>2</ele>
        <time>2019-10-03T06:52:05Z</time>
      </trkpt>
      <trkpt lat="43.41514" lon="6.7269">
        <ele>2</ele>
        <time>2019-10-03T06:52:12Z</time>
      </trkpt>
      <trkpt lat="43.41477" lon="6.72666">
        <ele>2.226447</ele>
        <time>2019-10-03T06:52:20Z</time>
      </trkpt>
      <trkpt lat="43.4105" lon="6.72418">
        <ele>4</ele>
        <time>2019-10-03T06:53:42Z</time>
      </trkpt>
      <trkpt lat="43.4091" lon="6.72392">
        <ele>4</ele>
        <time>2019-10-03T06:54:06Z</time>
      </trkpt>
      <trkpt lat="43.40906" lon="6.72376">
        <ele>4</ele>
        <time>2019-10-03T06:54:08Z</time>
      </trkpt>
      <trkpt lat="43.40743" lon="6.72292">
        <ele>2</ele>
        <time>2019-10-03T06:54:42Z</time>
      </trkpt>
      <trkpt lat="43.40735" lon="6.72246">
        <ele>2.0595</ele>
        <time>2019-10-03T06:54:48Z</time>
      </trkpt>
      <trkpt lat="43.40792" lon="6.72106">
        <ele>3.249169</ele>
        <time>2019-10-03T06:55:07Z</time>
      </trkpt>
      <trkpt lat="43.40816" lon="6.71954">
        <ele>3.875</ele>
        <time>2019-10-03T06:55:25Z</time>
      </trkpt>
      <trkpt lat="43.40897" lon="6.71785">
        <ele>4.5375</ele>
        <time>2019-10-03T06:55:49Z</time>
      </trkpt>
      <trkpt lat="43.40945" lon="6.71513">
        <ele>7.1128</ele>
        <time>2019-10-03T06:56:22Z</time>
      </trkpt>
      <trkpt lat="43.40942" lon="6.71492">
        <ele>7.168025</ele>
        <time>2019-10-03T06:56:26Z</time>
      </trkpt>
      <trkpt lat="43.40882" lon="6.7145">
        <ele>6.121203</ele>
        <time>2019-10-03T06:56:52Z</time>
      </trkpt>
      <trkpt lat="43.40826" lon="6.71461">
        <ele>4.65</ele>
        <time>2019-10-03T06:57:24Z</time>
      </trkpt>
      <trkpt lat="43.40824" lon="6.71331">
        <ele>4.995</ele>
        <time>2019-10-03T06:58:01Z</time>
      </trkpt>
      <trkpt lat="43.40821" lon="6.71294">
        <ele>4.78</ele>
        <time>2019-10-03T06:58:07Z</time>
      </trkpt>
      <trkpt lat="43.40618" lon="6.71227">
        <ele>3.650375</ele>
        <time>2019-10-03T06:58:52Z</time>
      </trkpt>
      <trkpt lat="43.40441" lon="6.71375">
        <ele>3</ele>
        <time>2019-10-03T06:59:30Z</time>
      </trkpt>
      <trkpt lat="43.40269" lon="6.71368">
        <ele>3</ele>
        <time>2019-10-03T07:00:04Z</time>
      </trkpt>
      <trkpt lat="43.40237" lon="6.71341">
        <ele>3.636338</ele>
        <time>2019-10-03T07:00:12Z</time>
      </trkpt>
      <trkpt lat="43.40234" lon="6.71211">
        <ele>5.235716</ele>
        <time>2019-10-03T07:00:39Z</time>
      </trkpt>
      <trkpt lat="43.40337" lon="6.71128">
        <ele>6.694603</ele>
        <time>2019-10-03T07:01:04Z</time>
      </trkpt>
      <trkpt lat="43.40343" lon="6.71099">
        <ele>8.1</ele>
        <time>2019-10-03T07:01:10Z</time>
      </trkpt>
      <trkpt lat="43.4041" lon="6.71005">
        <ele>13.370625</ele>
        <time>2019-10-03T07:01:39Z</time>
      </trkpt>
      <trkpt lat="43.40386" lon="6.70839">
        <ele>30.029139</ele>
        <time>2019-10-03T07:02:34Z</time>
      </trkpt>
      <trkpt lat="43.40361" lon="6.70772">
        <ele>35.515499</ele>
        <time>2019-10-03T07:02:55Z</time>
      </trkpt>
      <trkpt lat="43.40222" lon="6.70686">
        <ele>50.253799</ele>
        <time>2019-10-03T07:03:56Z</time>
      </trkpt>
      <trkpt lat="43.40149" lon="6.70529">
        <ele>64.489998</ele>
        <time>2019-10-03T07:04:49Z</time>
      </trkpt>
      <trkpt lat="43.40108" lon="6.70459">
        <ele>65.598076</ele>
        <time>2019-10-03T07:05:07Z</time>
      </trkpt>
      <trkpt lat="43.40134" lon="6.70032">
        <ele>66.790428</ele>
        <time>2019-10-03T07:06:18Z</time>
      </trkpt>
      <trkpt lat="43.40064" lon="6.70131">
        <ele>80.0112</ele>
        <time>2019-10-03T07:06:48Z</time>
      </trkpt>
      <trkpt lat="43.40004" lon="6.70107">
        <ele>88.418297</ele>
        <time>2019-10-03T07:07:13Z</time>
      </trkpt>
      <trkpt lat="43.39889" lon="6.70149">
        <ele>101.589783</ele>
        <time>2019-10-03T07:08:03Z</time>
      </trkpt>
      <trkpt lat="43.39851" lon="6.70186">
        <ele>102.629303</ele>
        <time>2019-10-03T07:08:17Z</time>
      </trkpt>
      <trkpt lat="43.39652" lon="6.70117">
        <ele>105.433601</ele>
        <time>2019-10-03T07:08:57Z</time>
      </trkpt>
      <trkpt lat="43.39592" lon="6.70064">
        <ele>108.285187</ele>
        <time>2019-10-03T07:09:18Z</time>
      </trkpt>
      <trkpt lat="43.39451" lon="6.70103">
        <ele>104.197021</ele>
        <time>2019-10-03T07:09:41Z</time>
      </trkpt>
      <trkpt lat="43.39366" lon="6.70073">
        <ele>102.257935</ele>
        <time>2019-10-03T07:09:53Z</time>
      </trkpt>
      <trkpt lat="43.39274" lon="6.6996">
        <ele>103.026711</ele>
        <time>2019-10-03T07:10:12Z</time>
      </trkpt>
      <trkpt lat="43.39146" lon="6.6985">
        <ele>108.841904</ele>
        <time>2019-10-03T07:10:43Z</time>
      </trkpt>
      <trkpt lat="43.39088" lon="6.69559">
        <ele>142.737076</ele>
        <time>2019-10-03T07:12:15Z</time>
      </trkpt>
      <trkpt lat="43.38977" lon="6.6946">
        <ele>159.849762</ele>
        <time>2019-10-03T07:13:17Z</time>
      </trkpt>
      <trkpt lat="43.38911" lon="6.6931">
        <ele>183.988068</ele>
        <time>2019-10-03T07:14:19Z</time>
      </trkpt>
      <trkpt lat="43.38833" lon="6.69267">
        <ele>195.171204</ele>
        <time>2019-10-03T07:15:04Z</time>
      </trkpt>
      <trkpt lat="43.38764" lon="6.69189">
        <ele>208.162445</ele>
        <time>2019-10-03T07:15:48Z</time>
      </trkpt>
      <trkpt lat="43.38711" lon="6.69133">
        <ele>211.079575</ele>
        <time>2019-10-03T07:16:15Z</time>
      </trkpt>
      <trkpt lat="43.38745" lon="6.69106">
        <ele>220.180374</ele>
        <time>2019-10-03T07:16:34Z</time>
      </trkpt>
      <trkpt lat="43.38804" lon="6.69143">
        <ele>220.654282</ele>
        <time>2019-10-03T07:16:56Z</time>
      </trkpt>
      <trkpt lat="43.38976" lon="6.69045">
        <ele>199.605911</ele>
        <time>2019-10-03T07:17:21Z</time>
      </trkpt>
      <trkpt lat="43.39052" lon="6.69015">
        <ele>186.288559</ele>
        <time>2019-10-03T07:17:29Z</time>
      </trkpt>
      <trkpt lat="43.39087" lon="6.68994">
        <ele>180.852417</ele>
        <time>2019-10-03T07:17:34Z</time>
      </trkpt>
      <trkpt lat="43.39121" lon="6.68949">
        <ele>172.42395</ele>
        <time>2019-10-03T07:17:41Z</time>
      </trkpt>
      <trkpt lat="43.39332" lon="6.6889">
        <ele>139.780197</ele>
        <time>2019-10-03T07:18:10Z</time>
      </trkpt>
      <trkpt lat="43.39451" lon="6.68929">
        <ele>117.035599</ele>
        <time>2019-10-03T07:18:28Z</time>
      </trkpt>
      <trkpt lat="43.39509" lon="6.68882">
        <ele>111.280235</ele>
        <time>2019-10-03T07:18:36Z</time>
      </trkpt>
      <trkpt lat="43.39536" lon="6.68839">
        <ele>106.220085</ele>
        <time>2019-10-03T07:18:41Z</time>
      </trkpt>
      <trkpt lat="43.39465" lon="6.68696">
        <ele>102.560387</ele>
        <time>2019-10-03T07:19:02Z</time>
      </trkpt>
      <trkpt lat="43.39481" lon="6.68547">
        <ele>87.239906</ele>
        <time>2019-10-03T07:19:17Z</time>
      </trkpt>
      <trkpt lat="43.39419" lon="6.68486">
        <ele>84.439224</ele>
        <time>2019-10-03T07:19:29Z</time>
      </trkpt>
      <trkpt lat="43.39335" lon="6.68332">
        <ele>71.328568</ele>
        <time>2019-10-03T07:19:50Z</time>
      </trkpt>
      <trkpt lat="43.3931" lon="6.68311">
        <ele>70.500366</ele>
        <time>2019-10-03T07:20:00Z</time>
      </trkpt>
      <trkpt lat="43.39313" lon="6.68272">
        <ele>71.62606</ele>
        <time>2019-10-03T07:20:09Z</time>
      </trkpt>
      <trkpt lat="43.39274" lon="6.68238">
        <ele>78.964531</ele>
        <time>2019-10-03T07:20:25Z</time>
      </trkpt>
      <trkpt lat="43.3933" lon="6.68024">
        <ele>80.171898</ele>
        <time>2019-10-03T07:21:10Z</time>
      </trkpt>
      <trkpt lat="43.39335" lon="6.67989">
        <ele>77.669998</ele>
        <time>2019-10-03T07:21:16Z</time>
      </trkpt>
      <trkpt lat="43.393" lon="6.67874">
        <ele>62.941483</ele>
        <time>2019-10-03T07:21:36Z</time>
      </trkpt>
      <trkpt lat="43.39318" lon="6.67849">
        <ele>59.4585</ele>
        <time>2019-10-03T07:21:43Z</time>
      </trkpt>
      <trkpt lat="43.39329" lon="6.67739">
        <ele>40.546814</ele>
        <time>2019-10-03T07:22:13Z</time>
      </trkpt>
      <trkpt lat="43.39269" lon="6.67665">
        <ele>22.638451</ele>
        <time>2019-10-03T07:22:42Z</time>
      </trkpt>
      <trkpt lat="43.39225" lon="6.67666">
        <ele>21.679575</ele>
        <time>2019-10-03T07:22:55Z</time>
      </trkpt>
      <trkpt lat="43.39217" lon="6.67629">
        <ele>20.592806</ele>
        <time>2019-10-03T07:23:07Z</time>
      </trkpt>
      <trkpt lat="43.3946" lon="6.67584">
        <ele>20.08325</ele>
        <time>2019-10-03T07:24:02Z</time>
      </trkpt>
      <trkpt lat="43.39686" lon="6.67475">
        <ele>18</ele>
        <time>2019-10-03T07:24:50Z</time>
      </trkpt>
      <trkpt lat="43.39727" lon="6.67495">
        <ele>17.940094</ele>
        <time>2019-10-03T07:25:02Z</time>
      </trkpt>
      <trkpt lat="43.39746" lon="6.67311">
        <ele>17.081812</ele>
        <time>2019-10-03T07:25:34Z</time>
      </trkpt>
      <trkpt lat="43.39669" lon="6.67201">
        <ele>16.1175</ele>
        <time>2019-10-03T07:25:58Z</time>
      </trkpt>
      <trkpt lat="43.39566" lon="6.67213">
        <ele>18.884762</ele>
        <time>2019-10-03T07:26:18Z</time>
      </trkpt>
      <trkpt lat="43.3948" lon="6.67099">
        <ele>16.136343</ele>
        <time>2019-10-03T07:26:41Z</time>
      </trkpt>
      <trkpt lat="43.39389" lon="6.66961">
        <ele>16.804075</ele>
        <time>2019-10-03T07:27:09Z</time>
      </trkpt>
      <trkpt lat="43.39266" lon="6.66866">
        <ele>16.446699</ele>
        <time>2019-10-03T07:27:33Z</time>
      </trkpt>
      <trkpt lat="43.39243" lon="6.66811">
        <ele>15.240425</ele>
        <time>2019-10-03T07:27:41Z</time>
      </trkpt>
      <trkpt lat="43.39281" lon="6.66711">
        <ele>20.653126</ele>
        <time>2019-10-03T07:28:01Z</time>
      </trkpt>
      <trkpt lat="43.39266" lon="6.66656">
        <ele>26.986219</ele>
        <time>2019-10-03T07:28:15Z</time>
      </trkpt>
      <trkpt lat="43.393" lon="6.66573">
        <ele>32.869812</ele>
        <time>2019-10-03T07:28:32Z</time>
      </trkpt>
      <trkpt lat="43.3931" lon="6.66541">
        <ele>33.904999</ele>
        <time>2019-10-03T07:28:37Z</time>
      </trkpt>
      <trkpt lat="43.39368" lon="6.66494">
        <ele>33.225361</ele>
        <time>2019-10-03T07:29:09Z</time>
      </trkpt>
      <trkpt lat="43.39569" lon="6.66442">
        <ele>52.290001</ele>
        <time>2019-10-03T07:30:25Z</time>
      </trkpt>
      <trkpt lat="43.39701" lon="6.66448">
        <ele>60.920937</ele>
        <time>2019-10-03T07:31:10Z</time>
      </trkpt>
      <trkpt lat="43.39711" lon="6.66393">
        <ele>62.670448</ele>
        <time>2019-10-03T07:31:25Z</time>
      </trkpt>
      <trkpt lat="43.39776" lon="6.66412">
        <ele>66.767395</ele>
        <time>2019-10-03T07:31:48Z</time>
      </trkpt>
      <trkpt lat="43.39796" lon="6.66318">
        <ele>75.173187</ele>
        <time>2019-10-03T07:32:12Z</time>
      </trkpt>
      <trkpt lat="43.39768" lon="6.66265">
        <ele>79.547501</ele>
        <time>2019-10-03T07:32:28Z</time>
      </trkpt>
      <trkpt lat="43.39775" lon="6.66231">
        <ele>84.414619</ele>
        <time>2019-10-03T07:32:44Z</time>
      </trkpt>
      <trkpt lat="43.3977" lon="6.66209">
        <ele>86.412048</ele>
        <time>2019-10-03T07:32:50Z</time>
      </trkpt>
      <trkpt lat="43.39822" lon="6.662">
        <ele>90.495644</ele>
        <time>2019-10-03T07:33:08Z</time>
      </trkpt>
      <trkpt lat="43.3993" lon="6.66106">
        <ele>91.690002</ele>
        <time>2019-10-03T07:33:37Z</time>
      </trkpt>
      <trkpt lat="43.4002" lon="6.65952">
        <ele>95.263748</ele>
        <time>2019-10-03T07:34:03Z</time>
      </trkpt>
      <trkpt lat="43.40115" lon="6.65679">
        <ele>117.447762</ele>
        <time>2019-10-03T07:35:01Z</time>
      </trkpt>
      <trkpt lat="43.40149" lon="6.6601">
        <ele>122.141426</ele>
        <time>2019-10-03T07:36:04Z</time>
      </trkpt>
      <trkpt lat="43.4021" lon="6.66045">
        <ele>130.615005</ele>
        <time>2019-10-03T07:36:32Z</time>
      </trkpt>
      <trkpt lat="43.40315" lon="6.66125">
        <ele>124.985001</ele>
        <time>2019-10-03T07:36:55Z</time>
      </trkpt>
      <trkpt lat="43.40508" lon="6.65967">
        <ele>139.94252</ele>
        <time>2019-10-03T07:37:44Z</time>
      </trkpt>
      <trkpt lat="43.40533" lon="6.66022">
        <ele>135.225784</ele>
        <time>2019-10-03T07:37:58Z</time>
      </trkpt>
      <trkpt lat="43.40625" lon="6.66062">
        <ele>145.339188</ele>
        <time>2019-10-03T07:38:23Z</time>
      </trkpt>
      <trkpt lat="43.40725" lon="6.66178">
        <ele>149.227524</ele>
        <time>2019-10-03T07:38:57Z</time>
      </trkpt>
      <trkpt lat="43.40743" lon="6.66186">
        <ele>148.919708</ele>
        <time>2019-10-03T07:39:02Z</time>
      </trkpt>
      <trkpt lat="43.40756" lon="6.662">
        <ele>147.060852</ele>
        <time>2019-10-03T07:39:06Z</time>
      </trkpt>
      <trkpt lat="43.40903" lon="6.66434">
        <ele>132.242188</ele>
        <time>2019-10-03T07:39:48Z</time>
      </trkpt>
      <trkpt lat="43.40993" lon="6.66497">
        <ele>120.661316</ele>
        <time>2019-10-03T07:40:04Z</time>
      </trkpt>
      <trkpt lat="43.41082" lon="6.66505">
        <ele>107.657539</ele>
        <time>2019-10-03T07:40:17Z</time>
      </trkpt>
      <trkpt lat="43.4115" lon="6.66382">
        <ele>100.304848</ele>
        <time>2019-10-03T07:40:31Z</time>
      </trkpt>
      <trkpt lat="43.41244" lon="6.66256">
        <ele>82.018486</ele>
        <time>2019-10-03T07:40:46Z</time>
      </trkpt>
      <trkpt lat="43.41281" lon="6.66247">
        <ele>79.994576</ele>
        <time>2019-10-03T07:40:52Z</time>
      </trkpt>
      <trkpt lat="43.4134" lon="6.66282">
        <ele>69.494659</ele>
        <time>2019-10-03T07:41:02Z</time>
      </trkpt>
      <trkpt lat="43.41345" lon="6.66342">
        <ele>66.636253</ele>
        <time>2019-10-03T07:41:08Z</time>
      </trkpt>
      <trkpt lat="43.41378" lon="6.66426">
        <ele>62.407188</ele>
        <time>2019-10-03T07:41:17Z</time>
      </trkpt>
      <trkpt lat="43.41453" lon="6.66492">
        <ele>55.845749</ele>
        <time>2019-10-03T07:41:32Z</time>
      </trkpt>
      <trkpt lat="43.41634" lon="6.66494">
        <ele>49.745167</ele>
        <time>2019-10-03T07:42:15Z</time>
      </trkpt>
      <trkpt lat="43.41653" lon="6.66523">
        <ele>57.573536</ele>
        <time>2019-10-03T07:42:23Z</time>
      </trkpt>
      <trkpt lat="43.41729" lon="6.66485">
        <ele>48.288361</ele>
        <time>2019-10-03T07:42:39Z</time>
      </trkpt>
      <trkpt lat="43.41762" lon="6.66568">
        <ele>59.085976</ele>
        <time>2019-10-03T07:43:00Z</time>
      </trkpt>
      <trkpt lat="43.41856" lon="6.66516">
        <ele>49.566948</ele>
        <time>2019-10-03T07:43:21Z</time>
      </trkpt>
      <trkpt lat="43.41938" lon="6.66493">
        <ele>38.996456</ele>
        <time>2019-10-03T07:43:34Z</time>
      </trkpt>
      <trkpt lat="43.42034" lon="6.66415">
        <ele>25.620291</ele>
        <time>2019-10-03T07:43:49Z</time>
      </trkpt>
      <trkpt lat="43.42148" lon="6.66405">
        <ele>22.328918</ele>
        <time>2019-10-03T07:44:05Z</time>
      </trkpt>
      <trkpt lat="43.42274" lon="6.66499">
        <ele>22.4823</ele>
        <time>2019-10-03T07:44:31Z</time>
      </trkpt>
      <trkpt lat="43.42299" lon="6.66472">
        <ele>19.564051</ele>
        <time>2019-10-03T07:44:42Z</time>
      </trkpt>
      <trkpt lat="43.42363" lon="6.66528">
        <ele>18.657297</ele>
        <time>2019-10-03T07:44:58Z</time>
      </trkpt>
      <trkpt lat="43.4244" lon="6.66537">
        <ele>21.066374</ele>
        <time>2019-10-03T07:45:11Z</time>
      </trkpt>
      <trkpt lat="43.42593" lon="6.66464">
        <ele>13.8525</ele>
        <time>2019-10-03T07:45:40Z</time>
      </trkpt>
      <trkpt lat="43.42581" lon="6.66352">
        <ele>12.916784</ele>
        <time>2019-10-03T07:45:57Z</time>
      </trkpt>
      <trkpt lat="43.42689" lon="6.66194">
        <ele>16.785</ele>
        <time>2019-10-03T07:46:26Z</time>
      </trkpt>
      <trkpt lat="43.4288" lon="6.66085">
        <ele>16.887899</ele>
        <time>2019-10-03T07:47:03Z</time>
      </trkpt>
      <trkpt lat="43.4291" lon="6.66069">
        <ele>17.059999</ele>
        <time>2019-10-03T07:47:12Z</time>
      </trkpt>
      <trkpt lat="43.4281" lon="6.65928">
        <ele>37.43</ele>
        <time>2019-10-03T07:48:05Z</time>
      </trkpt>
      <trkpt lat="43.42777" lon="6.65952">
        <ele>41.217373</ele>
        <time>2019-10-03T07:48:27Z</time>
      </trkpt>
      <trkpt lat="43.42732" lon="6.65854">
        <ele>42.064663</ele>
        <time>2019-10-03T07:48:55Z</time>
      </trkpt>
      <trkpt lat="43.42706" lon="6.65855">
        <ele>44.073875</ele>
        <time>2019-10-03T07:49:05Z</time>
      </trkpt>
      <trkpt lat="43.42664" lon="6.6563">
        <ele>62.197498</ele>
        <time>2019-10-03T07:49:57Z</time>
      </trkpt>
      <trkpt lat="43.42611" lon="6.65545">
        <ele>68.107498</ele>
        <time>2019-10-03T07:50:25Z</time>
      </trkpt>
      <trkpt lat="43.42666" lon="6.65478">
        <ele>68.977608</ele>
        <time>2019-10-03T07:50:43Z</time>
      </trkpt>
      <trkpt lat="43.42715" lon="6.65432">
        <ele>67.549446</ele>
        <time>2019-10-03T07:50:57Z</time>
      </trkpt>
      <trkpt lat="43.42668" lon="6.65397">
        <ele>69.860138</ele>
        <time>2019-10-03T07:51:10Z</time>
      </trkpt>
      <trkpt lat="43.42504" lon="6.65338">
        <ele>87.747719</ele>
        <time>2019-10-03T07:51:50Z</time>
      </trkpt>
      <trkpt lat="43.42404" lon="6.65188">
        <ele>102.489815</ele>
        <time>2019-10-03T07:52:45Z</time>
      </trkpt>
      <trkpt lat="43.4226" lon="6.64945">
        <ele>116.344193</ele>
        <time>2019-10-03T07:53:40Z</time>
      </trkpt>
      <trkpt lat="43.42197" lon="6.65">
        <ele>112.308754</ele>
        <time>2019-10-03T07:53:57Z</time>
      </trkpt>
      <trkpt lat="43.42176" lon="6.64991">
        <ele>114.61438</ele>
        <time>2019-10-03T07:54:02Z</time>
      </trkpt>
      <trkpt lat="43.42115" lon="6.64885">
        <ele>120.274223</ele>
        <time>2019-10-03T07:54:20Z</time>
      </trkpt>
      <trkpt lat="43.42076" lon="6.64905">
        <ele>115.525002</ele>
        <time>2019-10-03T07:54:28Z</time>
      </trkpt>
      <trkpt lat="43.42031" lon="6.64881">
        <ele>116.3675</ele>
        <time>2019-10-03T07:54:37Z</time>
      </trkpt>
      <trkpt lat="43.4191" lon="6.6476">
        <ele>111.962448</ele>
        <time>2019-10-03T07:55:03Z</time>
      </trkpt>
      <trkpt lat="43.41897" lon="6.64685">
        <ele>114.0942</ele>
        <time>2019-10-03T07:55:13Z</time>
      </trkpt>
      <trkpt lat="43.41929" lon="6.64603">
        <ele>114.488663</ele>
        <time>2019-10-03T07:55:26Z</time>
      </trkpt>
      <trkpt lat="43.4198" lon="6.64506">
        <ele>120.435112</ele>
        <time>2019-10-03T07:55:43Z</time>
      </trkpt>
      <trkpt lat="43.41902" lon="6.6451">
        <ele>112.865654</ele>
        <time>2019-10-03T07:55:58Z</time>
      </trkpt>
      <trkpt lat="43.41874" lon="6.64473">
        <ele>117.300003</ele>
        <time>2019-10-03T07:56:06Z</time>
      </trkpt>
      <trkpt lat="43.41826" lon="6.64524">
        <ele>111.835518</ele>
        <time>2019-10-03T07:56:18Z</time>
      </trkpt>
      <trkpt lat="43.41757" lon="6.64508">
        <ele>113.578979</ele>
        <time>2019-10-03T07:56:30Z</time>
      </trkpt>
      <trkpt lat="43.41662" lon="6.64429">
        <ele>114.049835</ele>
        <time>2019-10-03T07:56:51Z</time>
      </trkpt>
      <trkpt lat="43.41603" lon="6.64413">
        <ele>109.154076</ele>
        <time>2019-10-03T07:57:05Z</time>
      </trkpt>
      <trkpt lat="43.4154" lon="6.64385">
        <ele>108.144875</ele>
        <time>2019-10-03T07:57:16Z</time>
      </trkpt>
      <trkpt lat="43.41478" lon="6.64355">
        <ele>103.678001</ele>
        <time>2019-10-03T07:57:27Z</time>
      </trkpt>
      <trkpt lat="43.41457" lon="6.64211">
        <ele>104.995468</ele>
        <time>2019-10-03T07:57:49Z</time>
      </trkpt>
      <trkpt lat="43.41414" lon="6.64229">
        <ele>101.346725</ele>
        <time>2019-10-03T07:57:59Z</time>
      </trkpt>
      <trkpt lat="43.41297" lon="6.64133">
        <ele>105.565926</ele>
        <time>2019-10-03T07:58:24Z</time>
      </trkpt>
      <trkpt lat="43.40951" lon="6.64036">
        <ele>121.939339</ele>
        <time>2019-10-03T07:59:36Z</time>
      </trkpt>
      <trkpt lat="43.4074" lon="6.64064">
        <ele>130.983566</ele>
        <time>2019-10-03T08:00:22Z</time>
      </trkpt>
      <trkpt lat="43.40673" lon="6.63977">
        <ele>143.190521</ele>
        <time>2019-10-03T08:00:48Z</time>
      </trkpt>
      <trkpt lat="43.40644" lon="6.64041">
        <ele>141.381897</ele>
        <time>2019-10-03T08:01:05Z</time>
      </trkpt>
      <trkpt lat="43.40517" lon="6.64018">
        <ele>162.520798</ele>
        <time>2019-10-03T08:01:46Z</time>
      </trkpt>
      <trkpt lat="43.40294" lon="6.64039">
        <ele>171.477005</ele>
        <time>2019-10-03T08:02:47Z</time>
      </trkpt>
      <trkpt lat="43.40181" lon="6.64029">
        <ele>181.200531</ele>
        <time>2019-10-03T08:03:18Z</time>
      </trkpt>
      <trkpt lat="43.40025" lon="6.64156">
        <ele>189.216797</ele>
        <time>2019-10-03T08:04:15Z</time>
      </trkpt>
      <trkpt lat="43.39962" lon="6.64119">
        <ele>184.359161</ele>
        <time>2019-10-03T08:04:27Z</time>
      </trkpt>
      <trkpt lat="43.39892" lon="6.64052">
        <ele>183.278534</ele>
        <time>2019-10-03T08:04:39Z</time>
      </trkpt>
      <trkpt lat="43.39742" lon="6.64044">
        <ele>188.162857</ele>
        <time>2019-10-03T08:05:07Z</time>
      </trkpt>
      <trkpt lat="43.39619" lon="6.64009">
        <ele>186.507065</ele>
        <time>2019-10-03T08:05:32Z</time>
      </trkpt>
      <trkpt lat="43.39579" lon="6.63927">
        <ele>190.89743</ele>
        <time>2019-10-03T08:05:49Z</time>
      </trkpt>
      <trkpt lat="43.39569" lon="6.63922">
        <ele>190.617874</ele>
        <time>2019-10-03T08:05:51Z</time>
      </trkpt>
      <trkpt lat="43.3951" lon="6.63958">
        <ele>186.061798</ele>
        <time>2019-10-03T08:06:04Z</time>
      </trkpt>
      <trkpt lat="43.39334" lon="6.63937">
        <ele>200.286621</ele>
        <time>2019-10-03T08:06:46Z</time>
      </trkpt>
      <trkpt lat="43.39245" lon="6.63998">
        <ele>207.990799</ele>
        <time>2019-10-03T08:07:20Z</time>
      </trkpt>
      <trkpt lat="43.39205" lon="6.63973">
        <ele>210.471695</ele>
        <time>2019-10-03T08:07:35Z</time>
      </trkpt>
      <trkpt lat="43.39208" lon="6.63926">
        <ele>212.604752</ele>
        <time>2019-10-03T08:07:46Z</time>
      </trkpt>
      <trkpt lat="43.39215" lon="6.63909">
        <ele>212.220001</ele>
        <time>2019-10-03T08:07:49Z</time>
      </trkpt>
      <trkpt lat="43.39214" lon="6.63825">
        <ele>207.846298</ele>
        <time>2019-10-03T08:08:00Z</time>
      </trkpt>
      <trkpt lat="43.39153" lon="6.63672">
        <ele>190.389572</ele>
        <time>2019-10-03T08:08:18Z</time>
      </trkpt>
      <trkpt lat="43.39158" lon="6.63786">
        <ele>189.140808</ele>
        <time>2019-10-03T08:08:38Z</time>
      </trkpt>
      <trkpt lat="43.39091" lon="6.63837">
        <ele>189.016479</ele>
        <time>2019-10-03T08:08:55Z</time>
      </trkpt>
      <trkpt lat="43.39058" lon="6.63824">
        <ele>184.521576</ele>
        <time>2019-10-03T08:09:01Z</time>
      </trkpt>
      <trkpt lat="43.38931" lon="6.63643">
        <ele>162.613174</ele>
        <time>2019-10-03T08:09:24Z</time>
      </trkpt>
      <trkpt lat="43.38886" lon="6.6354">
        <ele>157.933258</ele>
        <time>2019-10-03T08:09:34Z</time>
      </trkpt>
      <trkpt lat="43.38833" lon="6.63499">
        <ele>152.091049</ele>
        <time>2019-10-03T08:09:42Z</time>
      </trkpt>
      <trkpt lat="43.38798" lon="6.63499">
        <ele>149.241013</ele>
        <time>2019-10-03T08:09:46Z</time>
      </trkpt>
      <trkpt lat="43.38758" lon="6.63476">
        <ele>143.471252</ele>
        <time>2019-10-03T08:09:54Z</time>
      </trkpt>
      <trkpt lat="43.38676" lon="6.63482">
        <ele>128.408569</ele>
        <time>2019-10-03T08:10:09Z</time>
      </trkpt>
      <trkpt lat="43.38624" lon="6.63388">
        <ele>111.617104</ele>
        <time>2019-10-03T08:10:22Z</time>
      </trkpt>
      <trkpt lat="43.38537" lon="6.63392">
        <ele>100.128815</ele>
        <time>2019-10-03T08:10:39Z</time>
      </trkpt>
      <trkpt lat="43.38432" lon="6.63513">
        <ele>99.619186</ele>
        <time>2019-10-03T08:11:00Z</time>
      </trkpt>
      <trkpt lat="43.38359" lon="6.63642">
        <ele>93.848846</ele>
        <time>2019-10-03T08:11:20Z</time>
      </trkpt>
      <trkpt lat="43.38267" lon="6.63717">
        <ele>89.999176</ele>
        <time>2019-10-03T08:11:47Z</time>
      </trkpt>
      <trkpt lat="43.38172" lon="6.63648">
        <ele>95.887283</ele>
        <time>2019-10-03T08:12:11Z</time>
      </trkpt>
      <trkpt lat="43.3814" lon="6.63603">
        <ele>94.464531</ele>
        <time>2019-10-03T08:12:23Z</time>
      </trkpt>
      <trkpt lat="43.38141" lon="6.63698">
        <ele>101.070442</ele>
        <time>2019-10-03T08:12:36Z</time>
      </trkpt>
      <trkpt lat="43.38205" lon="6.63845">
        <ele>114.042503</ele>
        <time>2019-10-03T08:13:07Z</time>
      </trkpt>
      <trkpt lat="43.37995" lon="6.63753">
        <ele>131.559998</ele>
        <time>2019-10-03T08:14:17Z</time>
      </trkpt>
      <trkpt lat="43.37816" lon="6.63756">
        <ele>153.707596</ele>
        <time>2019-10-03T08:15:17Z</time>
      </trkpt>
      <trkpt lat="43.37732" lon="6.63685">
        <ele>157.136108</ele>
        <time>2019-10-03T08:15:52Z</time>
      </trkpt>
      <trkpt lat="43.37705" lon="6.63625">
        <ele>158.013</ele>
        <time>2019-10-03T08:16:03Z</time>
      </trkpt>
      <trkpt lat="43.37725" lon="6.63564">
        <ele>156.167252</ele>
        <time>2019-10-03T08:16:14Z</time>
      </trkpt>
      <trkpt lat="43.37725" lon="6.63529">
        <ele>158.983871</ele>
        <time>2019-10-03T08:16:19Z</time>
      </trkpt>
      <trkpt lat="43.37715" lon="6.63373">
        <ele>163.535202</ele>
        <time>2019-10-03T08:16:45Z</time>
      </trkpt>
      <trkpt lat="43.37645" lon="6.63367">
        <ele>168.246399</ele>
        <time>2019-10-03T08:17:05Z</time>
      </trkpt>
      <trkpt lat="43.37675" lon="6.63486">
        <ele>173.332108</ele>
        <time>2019-10-03T08:17:42Z</time>
      </trkpt>
      <trkpt lat="43.37606" lon="6.63651">
        <ele>185.317139</ele>
        <time>2019-10-03T08:18:20Z</time>
      </trkpt>
      <trkpt lat="43.37617" lon="6.63764">
        <ele>197.003922</ele>
        <time>2019-10-03T08:18:48Z</time>
      </trkpt>
      <trkpt lat="43.37678" lon="6.63927">
        <ele>204.519119</ele>
        <time>2019-10-03T08:19:30Z</time>
      </trkpt>
      <trkpt lat="43.37691" lon="6.63952">
        <ele>202.464996</ele>
        <time>2019-10-03T08:19:40Z</time>
      </trkpt>
      <trkpt lat="43.37594" lon="6.6403">
        <ele>197.469482</ele>
        <time>2019-10-03T08:20:07Z</time>
      </trkpt>
      <trkpt lat="43.37616" lon="6.6404">
        <ele>194.259048</ele>
        <time>2019-10-03T08:20:12Z</time>
      </trkpt>
      <trkpt lat="43.37674" lon="6.64054">
        <ele>185.639313</ele>
        <time>2019-10-03T08:20:25Z</time>
      </trkpt>
      <trkpt lat="43.37632" lon="6.64113">
        <ele>175.823898</ele>
        <time>2019-10-03T08:20:42Z</time>
      </trkpt>
      <trkpt lat="43.37847" lon="6.64077">
        <ele>157.945007</ele>
        <time>2019-10-03T08:21:15Z</time>
      </trkpt>
      <trkpt lat="43.38049" lon="6.64175">
        <ele>132.555756</ele>
        <time>2019-10-03T08:21:49Z</time>
      </trkpt>
      <trkpt lat="43.38065" lon="6.64246">
        <ele>121.845467</ele>
        <time>2019-10-03T08:22:00Z</time>
      </trkpt>
      <trkpt lat="43.38088" lon="6.64285">
        <ele>114.248123</ele>
        <time>2019-10-03T08:22:12Z</time>
      </trkpt>
      <trkpt lat="43.38219" lon="6.6423">
        <ele>102.705177</ele>
        <time>2019-10-03T08:22:42Z</time>
      </trkpt>
      <trkpt lat="43.38199" lon="6.64335">
        <ele>96.335464</ele>
        <time>2019-10-03T08:22:58Z</time>
      </trkpt>
      <trkpt lat="43.38147" lon="6.64392">
        <ele>91.341026</ele>
        <time>2019-10-03T08:23:06Z</time>
      </trkpt>
      <trkpt lat="43.38098" lon="6.64436">
        <ele>81.544937</ele>
        <time>2019-10-03T08:23:14Z</time>
      </trkpt>
      <trkpt lat="43.37856" lon="6.6446">
        <ele>85.359375</ele>
        <time>2019-10-03T08:23:53Z</time>
      </trkpt>
      <trkpt lat="43.37771" lon="6.64515">
        <ele>92.6502</ele>
        <time>2019-10-03T08:24:20Z</time>
      </trkpt>
      <trkpt lat="43.37728" lon="6.64583">
        <ele>95.610222</ele>
        <time>2019-10-03T08:24:38Z</time>
      </trkpt>
      <trkpt lat="43.37627" lon="6.64575">
        <ele>98.820702</ele>
        <time>2019-10-03T08:25:04Z</time>
      </trkpt>
      <trkpt lat="43.37564" lon="6.64595">
        <ele>99.069695</ele>
        <time>2019-10-03T08:25:17Z</time>
      </trkpt>
      <trkpt lat="43.37369" lon="6.64758">
        <ele>100.318207</ele>
        <time>2019-10-03T08:26:11Z</time>
      </trkpt>
      <trkpt lat="43.37274" lon="6.64759">
        <ele>101.908127</ele>
        <time>2019-10-03T08:26:30Z</time>
      </trkpt>
      <trkpt lat="43.3721" lon="6.64693">
        <ele>102.8125</ele>
        <time>2019-10-03T08:26:48Z</time>
      </trkpt>
      <trkpt lat="43.37004" lon="6.64767">
        <ele>104.88974</ele>
        <time>2019-10-03T08:27:31Z</time>
      </trkpt>
      <trkpt lat="43.36922" lon="6.64762">
        <ele>109.123253</ele>
        <time>2019-10-03T08:27:47Z</time>
      </trkpt>
      <trkpt lat="43.36869" lon="6.64827">
        <ele>112.96936</ele>
        <time>2019-10-03T08:28:02Z</time>
      </trkpt>
      <trkpt lat="43.36814" lon="6.64869">
        <ele>112.304489</ele>
        <time>2019-10-03T08:28:17Z</time>
      </trkpt>
      <trkpt lat="43.36605" lon="6.64938">
        <ele>122.18959</ele>
        <time>2019-10-03T08:29:04Z</time>
      </trkpt>
      <trkpt lat="43.36578" lon="6.64961">
        <ele>122.052879</ele>
        <time>2019-10-03T08:29:10Z</time>
      </trkpt>
      <trkpt lat="43.36611" lon="6.65579">
        <ele>141.589401</ele>
        <time>2019-10-03T08:31:01Z</time>
      </trkpt>
      <trkpt lat="43.36681" lon="6.65772">
        <ele>153.202454</ele>
        <time>2019-10-03T08:31:41Z</time>
      </trkpt>
      <trkpt lat="43.36649" lon="6.65857">
        <ele>157.05687</ele>
        <time>2019-10-03T08:32:01Z</time>
      </trkpt>
      <trkpt lat="43.36708" lon="6.65861">
        <ele>160.008118</ele>
        <time>2019-10-03T08:32:20Z</time>
      </trkpt>
      <trkpt lat="43.36744" lon="6.6597">
        <ele>173.100647</ele>
        <time>2019-10-03T08:32:46Z</time>
      </trkpt>
      <trkpt lat="43.36757" lon="6.66025">
        <ele>177.649292</ele>
        <time>2019-10-03T08:32:57Z</time>
      </trkpt>
      <trkpt lat="43.36758" lon="6.66134">
        <ele>181.424515</ele>
        <time>2019-10-03T08:33:19Z</time>
      </trkpt>
      <trkpt lat="43.367" lon="6.66241">
        <ele>187.740799</ele>
        <time>2019-10-03T08:33:43Z</time>
      </trkpt>
      <trkpt lat="43.36695" lon="6.66262">
        <ele>187.113266</ele>
        <time>2019-10-03T08:33:47Z</time>
      </trkpt>
      <trkpt lat="43.36671" lon="6.66293">
        <ele>187.778122</ele>
        <time>2019-10-03T08:33:57Z</time>
      </trkpt>
      <trkpt lat="43.36675" lon="6.66426">
        <ele>176.026672</ele>
        <time>2019-10-03T08:34:14Z</time>
      </trkpt>
      <trkpt lat="43.36681" lon="6.66459">
        <ele>171.62178</ele>
        <time>2019-10-03T08:34:19Z</time>
      </trkpt>
      <trkpt lat="43.36728" lon="6.66708">
        <ele>137.908798</ele>
        <time>2019-10-03T08:34:57Z</time>
      </trkpt>
      <trkpt lat="43.36728" lon="6.66854">
        <ele>119.978226</ele>
        <time>2019-10-03T08:35:15Z</time>
      </trkpt>
      <trkpt lat="43.36699" lon="6.66878">
        <ele>121.988373</ele>
        <time>2019-10-03T08:35:25Z</time>
      </trkpt>
      <trkpt lat="43.36701" lon="6.67021">
        <ele>123.177757</ele>
        <time>2019-10-03T08:36:00Z</time>
      </trkpt>
      <trkpt lat="43.36693" lon="6.67133">
        <ele>113.89875</ele>
        <time>2019-10-03T08:36:19Z</time>
      </trkpt>
      <trkpt lat="43.36656" lon="6.67305">
        <ele>115.047325</ele>
        <time>2019-10-03T08:36:45Z</time>
      </trkpt>
      <trkpt lat="43.36702" lon="6.6736">
        <ele>113.110535</ele>
        <time>2019-10-03T08:37:00Z</time>
      </trkpt>
      <trkpt lat="43.36706" lon="6.67411">
        <ele>116.526154</ele>
        <time>2019-10-03T08:37:09Z</time>
      </trkpt>
      <trkpt lat="43.36764" lon="6.67587">
        <ele>117.616936</ele>
        <time>2019-10-03T08:37:39Z</time>
      </trkpt>
      <trkpt lat="43.36744" lon="6.67701">
        <ele>132.886871</ele>
        <time>2019-10-03T08:38:04Z</time>
      </trkpt>
      <trkpt lat="43.36764" lon="6.67964">
        <ele>157.735001</ele>
        <time>2019-10-03T08:39:06Z</time>
      </trkpt>
      <trkpt lat="43.36761" lon="6.6799">
        <ele>155.257492</ele>
        <time>2019-10-03T08:39:10Z</time>
      </trkpt>
      <trkpt lat="43.36725" lon="6.68038">
        <ele>156.586578</ele>
        <time>2019-10-03T08:39:20Z</time>
      </trkpt>
      <trkpt lat="43.3683" lon="6.68176">
        <ele>133.716675</ele>
        <time>2019-10-03T08:39:44Z</time>
      </trkpt>
      <trkpt lat="43.36948" lon="6.68137">
        <ele>157.225708</ele>
        <time>2019-10-03T08:40:18Z</time>
      </trkpt>
      <trkpt lat="43.36953" lon="6.68284">
        <ele>171.188644</ele>
        <time>2019-10-03T08:40:57Z</time>
      </trkpt>
      <trkpt lat="43.36916" lon="6.68331">
        <ele>164.924622</ele>
        <time>2019-10-03T08:41:09Z</time>
      </trkpt>
      <trkpt lat="43.36944" lon="6.68386">
        <ele>164.824371</ele>
        <time>2019-10-03T08:41:18Z</time>
      </trkpt>
      <trkpt lat="43.37172" lon="6.6836">
        <ele>193.815765</ele>
        <time>2019-10-03T08:42:30Z</time>
      </trkpt>
      <trkpt lat="43.3721" lon="6.68457">
        <ele>188.756516</ele>
        <time>2019-10-03T08:42:44Z</time>
      </trkpt>
      <trkpt lat="43.37267" lon="6.68552">
        <ele>188.942337</ele>
        <time>2019-10-03T08:42:58Z</time>
      </trkpt>
      <trkpt lat="43.37418" lon="6.68636">
        <ele>201.181244</ele>
        <time>2019-10-03T08:43:47Z</time>
      </trkpt>
      <trkpt lat="43.37604" lon="6.68713">
        <ele>221.021408</ele>
        <time>2019-10-03T08:44:43Z</time>
      </trkpt>
      <trkpt lat="43.37741" lon="6.69054">
        <ele>233.452499</ele>
        <time>2019-10-03T08:45:54Z</time>
      </trkpt>
      <trkpt lat="43.37805" lon="6.69145">
        <ele>235.538544</ele>
        <time>2019-10-03T08:46:12Z</time>
      </trkpt>
      <trkpt lat="43.37817" lon="6.6922">
        <ele>232.84346</ele>
        <time>2019-10-03T08:46:22Z</time>
      </trkpt>
      <trkpt lat="43.37878" lon="6.69257">
        <ele>235.530502</ele>
        <time>2019-10-03T08:46:45Z</time>
      </trkpt>
      <trkpt lat="43.37814" lon="6.6932">
        <ele>214.570618</ele>
        <time>2019-10-03T08:46:54Z</time>
      </trkpt>
      <trkpt lat="43.37799" lon="6.69344">
        <ele>211.255646</ele>
        <time>2019-10-03T08:46:58Z</time>
      </trkpt>
      <trkpt lat="43.37777" lon="6.69436">
        <ele>205.393433</ele>
        <time>2019-10-03T08:47:06Z</time>
      </trkpt>
      <trkpt lat="43.37812" lon="6.69728">
        <ele>176.725067</ele>
        <time>2019-10-03T08:47:29Z</time>
      </trkpt>
      <trkpt lat="43.37823" lon="6.69937">
        <ele>145.436172</ele>
        <time>2019-10-03T08:47:47Z</time>
      </trkpt>
      <trkpt lat="43.37926" lon="6.70155">
        <ele>127.65197</ele>
        <time>2019-10-03T08:48:09Z</time>
      </trkpt>
      <trkpt lat="43.38117" lon="6.70071">
        <ele>106.702721</ele>
        <time>2019-10-03T08:48:35Z</time>
      </trkpt>
      <trkpt lat="43.38198" lon="6.70073">
        <ele>95.915703</ele>
        <time>2019-10-03T08:48:45Z</time>
      </trkpt>
      <trkpt lat="43.38299" lon="6.70201">
        <ele>94.583046</ele>
        <time>2019-10-03T08:49:18Z</time>
      </trkpt>
      <trkpt lat="43.38321" lon="6.70303">
        <ele>105.045158</ele>
        <time>2019-10-03T08:49:36Z</time>
      </trkpt>
      <trkpt lat="43.38437" lon="6.70399">
        <ele>109.315285</ele>
        <time>2019-10-03T08:50:21Z</time>
      </trkpt>
      <trkpt lat="43.38406" lon="6.70459">
        <ele>117.921448</ele>
        <time>2019-10-03T08:50:40Z</time>
      </trkpt>
      <trkpt lat="43.3841" lon="6.70519">
        <ele>117.597504</ele>
        <time>2019-10-03T08:50:52Z</time>
      </trkpt>
      <trkpt lat="43.38436" lon="6.7057">
        <ele>110.476814</ele>
        <time>2019-10-03T08:51:00Z</time>
      </trkpt>
      <trkpt lat="43.38496" lon="6.70599">
        <ele>103.767258</ele>
        <time>2019-10-03T08:51:11Z</time>
      </trkpt>
      <trkpt lat="43.38577" lon="6.70722">
        <ele>105.171997</ele>
        <time>2019-10-03T08:51:37Z</time>
      </trkpt>
      <trkpt lat="43.38644" lon="6.70738">
        <ele>103.4002</ele>
        <time>2019-10-03T08:51:59Z</time>
      </trkpt>
      <trkpt lat="43.38763" lon="6.707">
        <ele>103.102493</ele>
        <time>2019-10-03T08:52:45Z</time>
      </trkpt>
      <trkpt lat="43.38803" lon="6.70676">
        <ele>100.275879</ele>
        <time>2019-10-03T08:52:53Z</time>
      </trkpt>
      <trkpt lat="43.38928" lon="6.70576">
        <ele>91.291252</ele>
        <time>2019-10-03T08:53:34Z</time>
      </trkpt>
      <trkpt lat="43.38976" lon="6.70565">
        <ele>86.046143</ele>
        <time>2019-10-03T08:53:46Z</time>
      </trkpt>
      <trkpt lat="43.39031" lon="6.70517">
        <ele>71.289238</ele>
        <time>2019-10-03T08:54:06Z</time>
      </trkpt>
      <trkpt lat="43.39147" lon="6.70663">
        <ele>53.62928</ele>
        <time>2019-10-03T08:54:46Z</time>
      </trkpt>
      <trkpt lat="43.3923" lon="6.70694">
        <ele>47.404999</ele>
        <time>2019-10-03T08:55:03Z</time>
      </trkpt>
      <trkpt lat="43.39265" lon="6.70702">
        <ele>44.48521</ele>
        <time>2019-10-03T08:55:14Z</time>
      </trkpt>
      <trkpt lat="43.39262" lon="6.70662">
        <ele>38.090511</ele>
        <time>2019-10-03T08:55:25Z</time>
      </trkpt>
      <trkpt lat="43.39339" lon="6.70654">
        <ele>41.951336</ele>
        <time>2019-10-03T08:56:33Z</time>
      </trkpt>
      <trkpt lat="43.39452" lon="6.70686">
        <ele>50.741726</ele>
        <time>2019-10-03T08:57:11Z</time>
      </trkpt>
      <trkpt lat="43.39487" lon="6.70666">
        <ele>54.37928</ele>
        <time>2019-10-03T08:57:32Z</time>
      </trkpt>
      <trkpt lat="43.3951" lon="6.7061">
        <ele>60.722107</ele>
        <time>2019-10-03T08:57:48Z</time>
      </trkpt>
      <trkpt lat="43.39536" lon="6.70602">
        <ele>58.769497</ele>
        <time>2019-10-03T08:57:57Z</time>
      </trkpt>
      <trkpt lat="43.39551" lon="6.70632">
        <ele>54.253201</ele>
        <time>2019-10-03T08:58:06Z</time>
      </trkpt>
      <trkpt lat="43.39572" lon="6.70601">
        <ele>55.656631</ele>
        <time>2019-10-03T08:58:13Z</time>
      </trkpt>
      <trkpt lat="43.39616" lon="6.70683">
        <ele>56.686249</ele>
        <time>2019-10-03T08:58:43Z</time>
      </trkpt>
      <trkpt lat="43.39694" lon="6.70645">
        <ele>65.263748</ele>
        <time>2019-10-03T08:59:11Z</time>
      </trkpt>
      <trkpt lat="43.39741" lon="6.70647">
        <ele>64.038452</ele>
        <time>2019-10-03T08:59:24Z</time>
      </trkpt>
      <trkpt lat="43.39833" lon="6.70489">
        <ele>69.117882</ele>
        <time>2019-10-03T09:00:03Z</time>
      </trkpt>
      <trkpt lat="43.39865" lon="6.70549">
        <ele>65.503448</ele>
        <time>2019-10-03T09:00:23Z</time>
      </trkpt>
      <trkpt lat="43.39921" lon="6.70588">
        <ele>65.014999</ele>
        <time>2019-10-03T09:00:38Z</time>
      </trkpt>
      <trkpt lat="43.39986" lon="6.70519">
        <ele>69.178871</ele>
        <time>2019-10-03T09:01:01Z</time>
      </trkpt>
      <trkpt lat="43.39995" lon="6.7047">
        <ele>72.119827</ele>
        <time>2019-10-03T09:01:11Z</time>
      </trkpt>
      <trkpt lat="43.40012" lon="6.70423">
        <ele>74.1866</ele>
        <time>2019-10-03T09:01:20Z</time>
      </trkpt>
      <trkpt lat="43.4005" lon="6.70416">
        <ele>69.96489</ele>
        <time>2019-10-03T09:01:29Z</time>
      </trkpt>
      <trkpt lat="43.40137" lon="6.70568">
        <ele>61.569893</ele>
        <time>2019-10-03T09:02:19Z</time>
      </trkpt>
      <trkpt lat="43.40209" lon="6.70727">
        <ele>49.536251</ele>
        <time>2019-10-03T09:02:51Z</time>
      </trkpt>
      <trkpt lat="43.40134" lon="6.70938">
        <ele>30.719376</ele>
        <time>2019-10-03T09:03:20Z</time>
      </trkpt>
      <trkpt lat="43.40135" lon="6.71138">
        <ele>8.5225</ele>
        <time>2019-10-03T09:03:42Z</time>
      </trkpt>
      <trkpt lat="43.40146" lon="6.71282">
        <ele>4.67875</ele>
        <time>2019-10-03T09:03:55Z</time>
      </trkpt>
      <trkpt lat="43.39914" lon="6.71803">
        <ele>8.73225</ele>
        <time>2019-10-03T09:05:09Z</time>
      </trkpt>
      <trkpt lat="43.39697" lon="6.7188">
        <ele>10.4149</ele>
        <time>2019-10-03T09:05:45Z</time>
      </trkpt>
      <trkpt lat="43.39336" lon="6.71815">
        <ele>10.275</ele>
        <time>2019-10-03T09:06:42Z</time>
      </trkpt>
      <trkpt lat="43.39243" lon="6.71815">
        <ele>11.12</ele>
        <time>2019-10-03T09:06:57Z</time>
      </trkpt>
      <trkpt lat="43.39177" lon="6.71861">
        <ele>10.896506</ele>
        <time>2019-10-03T09:07:09Z</time>
      </trkpt>
      <trkpt lat="43.39153" lon="6.71891">
        <ele>10.34</ele>
        <time>2019-10-03T09:07:15Z</time>
      </trkpt>
      <trkpt lat="43.39077" lon="6.72134">
        <ele>9.200337</ele>
        <time>2019-10-03T09:07:45Z</time>
      </trkpt>
      <trkpt lat="43.39141" lon="6.72277">
        <ele>8.251869</ele>
        <time>2019-10-03T09:08:05Z</time>
      </trkpt>
      <trkpt lat="43.39157" lon="6.7249">
        <ele>10.09875</ele>
        <time>2019-10-03T09:08:29Z</time>
      </trkpt>
      <trkpt lat="43.39137" lon="6.72554">
        <ele>11.6325</ele>
        <time>2019-10-03T09:08:38Z</time>
      </trkpt>
      <trkpt lat="43.39133" lon="6.72597">
        <ele>10.88705</ele>
        <time>2019-10-03T09:08:46Z</time>
      </trkpt>
      <trkpt lat="43.39168" lon="6.72802">
        <ele>9.92</ele>
        <time>2019-10-03T09:09:30Z</time>
      </trkpt>
      <trkpt lat="43.39065" lon="6.72886">
        <ele>13.91</ele>
        <time>2019-10-03T09:09:32Z</time>
      </trkpt>
      <trkpt lat="43.38904" lon="6.72773">
        <ele>17.814888</ele>
        <time>2019-10-03T09:09:44Z</time>
      </trkpt>
      <trkpt lat="43.38799" lon="6.73026">
        <ele>1.800719</ele>
        <time>2019-10-03T09:09:59Z</time>
      </trkpt>
      <trkpt lat="43.38828" lon="6.73058">
        <ele>1.13025</ele>
      </trkpt>
      <trkpt lat="43.38869" lon="6.7303">
        <ele>4.2375</ele>
      </trkpt>
      <trkpt lat="43.38928" lon="6.73077">
        <ele>5.152969</ele>
      </trkpt>
      <trkpt lat="43.39012" lon="6.73206">
        <ele>2.316844</ele>
      </trkpt>
      <trkpt lat="43.39119" lon="6.73159">
        <ele>2.2922</ele>
      </trkpt>
      <trkpt lat="43.39125" lon="6.73054">
        <ele>6.000212</ele>
      </trkpt>
      <trkpt lat="43.39222" lon="6.72917">
        <ele>2.236138</ele>
      </trkpt>
      <trkpt lat="43.39235" lon="6.72804">
        <ele>4.568062</ele>
      </trkpt>
      <trkpt lat="43.39375" lon="6.72801">
        <ele>1.673494</ele>
        <time>2019-10-03T09:10:03Z</time>
      </trkpt>
      <trkpt lat="43.39403" lon="6.72783">
        <ele>1.82125</ele>
        <time>2019-10-03T09:10:09Z</time>
      </trkpt>
      <trkpt lat="43.39938" lon="6.72975">
        <ele>1</ele>
        <time>2019-10-03T09:11:33Z</time>
      </trkpt>
      <trkpt lat="43.40205" lon="6.7299">
        <ele>2.46625</ele>
        <time>2019-10-03T09:12:15Z</time>
      </trkpt>
      <trkpt lat="43.40405" lon="6.72914">
        <ele>2.94875</ele>
        <time>2019-10-03T09:12:48Z</time>
      </trkpt>
      <trkpt lat="43.40903" lon="6.72429">
        <ele>3.553431</ele>
        <time>2019-10-03T09:14:25Z</time>
      </trkpt>
      <trkpt lat="43.41047" lon="6.72425">
        <ele>4</ele>
        <time>2019-10-03T09:14:49Z</time>
      </trkpt>
      <trkpt lat="43.41925" lon="6.72894">
        <ele>4.84</ele>
        <time>2019-10-03T09:17:36Z</time>
      </trkpt>
      <trkpt lat="43.41984" lon="6.7298">
        <ele>6</ele>
        <time>2019-10-03T09:18:03Z</time>
      </trkpt>
      <trkpt lat="43.42113" lon="6.7305">
        <ele>6</ele>
        <time>2019-10-03T09:18:21Z</time>
      </trkpt>
      <trkpt lat="43.42472" lon="6.73638">
        <ele>8</ele>
        <time>2019-10-03T09:19:15Z</time>
      </trkpt>
    </trkseg>
  </trk>
</gpx>